createdAt,value
2023-02-13T04:31:52.666Z,36.10
2023-02-13T04:42:28.268Z,43.10
2023-02-13T04:53:03.846Z,38.33
2023-02-13T05:03:39.249Z,42.20
2023-02-13T05:14:15.092Z,38.53
2023-02-13T05:24:50.681Z,32.88
2023-02-13T05:35:25.985Z,42.45
2023-02-13T05:46:03.480Z,32.35
2023-02-13T05:56:39.218Z,30.40
2023-02-13T06:07:14.750Z,29.60
2023-02-13T06:17:50.558Z,26.13
2023-02-13T06:28:26.472Z,31.00
2023-02-13T06:39:01.940Z,25.77
2023-02-13T06:49:37.846Z,27.92
2023-02-13T07:00:15.716Z,27.65
2023-02-13T07:10:51.438Z,31.10
2023-02-13T07:21:27.226Z,28.52
2023-02-13T07:32:02.822Z,25.42
2023-02-13T07:42:38.708Z,52.67
2023-02-13T07:53:14.291Z,32.17
2023-02-13T08:03:51.272Z,19.58
2023-02-13T08:14:27.691Z,22.33
2023-02-13T08:25:03.921Z,23.80
2023-02-13T08:35:39.513Z,26.08
2023-02-13T08:46:16.615Z,31.80
2023-02-13T08:56:52.297Z,26.45
2023-02-13T09:07:27.876Z,16.77
2023-02-13T09:18:03.457Z,16.85
2023-02-13T09:28:40.416Z,18.10
2023-02-13T09:39:16.789Z,13.60
2023-02-13T09:49:56.552Z,14.60
2023-02-13T10:00:40.362Z,16.10
2023-02-13T10:11:32.654Z,11.68
2023-02-13T10:22:16.599Z,13.15
2023-02-13T10:33:19.581Z,12.73
2023-02-13T10:44:23.753Z,12.38
2023-02-13T10:55:23.435Z,11.40
2023-02-13T11:06:01.233Z,9.93
2023-02-13T11:17:01.926Z,11.93
2023-02-13T11:27:39.365Z,11.88
2023-02-13T11:38:20.757Z,8.98
2023-02-13T11:48:57.642Z,9.18
2023-02-13T11:59:41.398Z,12.23
2023-02-13T12:10:27.486Z,9.98
2023-02-13T12:21:21.916Z,11.43
2023-02-13T12:32:18.536Z,8.30
2023-02-13T12:43:21.893Z,9.02
2023-02-13T12:54:07.713Z,11.63
2023-02-13T13:05:37.587Z,7.05
2023-02-13T13:16:20.188Z,10.80
2023-02-13T13:26:57.314Z,12.00
2023-02-13T13:37:43.084Z,8.18
2023-02-13T13:48:59.818Z,6.97
2023-02-13T13:59:37.950Z,7.78
2023-02-13T14:10:25.832Z,5.90
2023-02-13T14:21:03.654Z,6.95
2023-02-13T14:31:43.086Z,4.38
2023-02-13T14:42:28.218Z,3.00
2023-02-13T14:53:14.197Z,3.50
2023-02-13T15:03:57.142Z,2.75
2023-02-13T15:14:36.870Z,6.15
2023-02-13T15:25:36.181Z,4.32
2023-02-13T15:36:27.606Z,8.10
2023-02-13T15:47:07.432Z,4.78
2023-02-13T15:57:43.150Z,6.40
2023-02-13T16:08:33.408Z,3.95
2023-02-13T16:19:23.058Z,8.35
2023-02-13T16:30:07.460Z,4.78
2023-02-13T16:40:44.384Z,5.85
2023-02-13T16:51:29.930Z,7.32
2023-02-13T17:02:21.604Z,6.35
2023-02-13T17:13:01.357Z,9.40
2023-02-13T17:23:36.887Z,6.27
2023-02-13T17:34:12.498Z,8.73
2023-02-13T17:44:47.945Z,10.13
2023-02-13T17:55:26.217Z,8.20
2023-02-13T18:06:01.928Z,12.07
2023-02-13T18:16:38.124Z,8.80
2023-02-13T18:27:13.565Z,16.65
2023-02-13T18:37:49.579Z,10.85
2023-02-13T18:48:25.232Z,16.08
2023-02-13T18:59:00.853Z,14.77
2023-02-13T19:09:40.149Z,12.57
2023-02-13T19:20:16.898Z,10.35
2023-02-13T19:30:52.528Z,15.15
2023-02-13T19:41:28.983Z,21.08
2023-02-13T19:52:04.777Z,23.70
2023-02-13T20:02:40.657Z,14.50
2023-02-13T20:13:16.494Z,20.88
2023-02-13T20:23:52.341Z,22.38
2023-02-13T20:34:31.545Z,22.23
2023-02-13T20:45:09.874Z,28.27
2023-02-13T20:55:45.482Z,19.60
2023-02-13T21:06:32.828Z,16.40
2023-02-13T21:17:09.587Z,14.45
2023-02-13T21:27:45.156Z,14.70
2023-02-13T21:38:20.947Z,11.35
2023-02-13T21:49:03.580Z,19.92
2023-02-13T21:59:39.038Z,20.55
2023-02-13T22:10:14.806Z,25.52
2023-02-13T22:20:51.165Z,15.27
